createdAt,value
2018-08-07T00:00:08.391Z,23.40
2018-08-07T00:01:08.390Z,23.40
2018-08-07T00:02:08.380Z,23.47
2018-08-07T00:03:08.355Z,23.47
2018-08-07T00:04:08.350Z,23.36
2018-08-07T00:05:08.336Z,23.40
2018-08-07T00:06:08.326Z,23.42
2018-08-07T00:07:08.395Z,23.37
2018-08-07T00:08:08.309Z,23.49
2018-08-07T00:09:08.292Z,23.48
2018-08-07T00:10:08.276Z,23.45
2018-08-07T00:11:08.264Z,23.42
2018-08-07T00:12:08.269Z,23.47
2018-08-07T00:13:08.243Z,23.47
2018-08-07T00:14:08.232Z,23.37
2018-08-07T00:15:08.226Z,23.40
2018-08-07T00:16:08.216Z,23.40
2018-08-07T00:17:08.198Z,23.49
2018-08-07T00:18:08.186Z,23.42
2018-08-07T00:19:08.179Z,23.48
2018-08-07T00:20:08.164Z,23.39
2018-08-07T00:21:08.154Z,23.40
2018-08-07T00:22:08.143Z,23.36
2018-08-07T00:23:08.131Z,23.36
2018-08-07T00:24:08.120Z,23.33
2018-08-07T00:25:08.108Z,23.21
2018-08-07T00:26:08.095Z,23.36
2018-08-07T00:27:08.088Z,23.28
2018-08-07T00:28:08.082Z,23.34
2018-08-07T00:29:08.061Z,23.32
2018-08-07T00:30:08.062Z,23.28
2018-08-07T00:31:08.043Z,23.17
2018-08-07T00:32:08.029Z,23.16
2018-08-07T00:33:08.024Z,23.18
2018-08-07T00:34:08.007Z,23.18
2018-08-07T00:35:07.994Z,23.25
2018-08-07T00:36:07.983Z,23.23
2018-08-07T00:37:07.972Z,23.18
2018-08-07T00:38:07.957Z,23.17
2018-08-07T00:39:07.947Z,23.20
2018-08-07T00:40:07.942Z,23.17
2018-08-07T00:41:07.939Z,23.20
2018-08-07T00:42:07.918Z,23.16
2018-08-07T00:43:07.906Z,23.07
2018-08-07T00:44:07.889Z,23.11
2018-08-07T00:45:07.878Z,23.08
2018-08-07T00:46:07.867Z,23.06
2018-08-07T00:47:07.857Z,23.07
2018-08-07T00:48:07.844Z,23.07
2018-08-07T00:49:07.836Z,22.98
2018-08-07T00:50:07.873Z,22.98
2018-08-07T00:51:07.810Z,23.02
2018-08-07T00:52:07.955Z,22.95
2018-08-07T00:53:07.785Z,22.93
2018-08-07T00:54:07.775Z,22.88
2018-08-07T00:55:07.762Z,22.96
2018-08-07T00:56:07.749Z,22.95
2018-08-07T00:57:07.739Z,22.96
2018-08-07T00:58:07.729Z,22.83
2018-08-07T00:59:07.718Z,22.83
2018-08-07T01:00:07.714Z,22.81
2018-08-07T01:01:07.693Z,22.86
2018-08-07T01:02:07.683Z,22.83
2018-08-07T01:03:07.671Z,22.92
2018-08-07T01:04:07.658Z,22.96
2018-08-07T01:05:07.649Z,22.83
2018-08-07T01:06:07.636Z,22.77
2018-08-07T01:07:07.623Z,22.80
2018-08-07T01:08:07.611Z,22.77
2018-08-07T01:09:07.603Z,22.80
2018-08-07T01:10:07.596Z,22.76
2018-08-07T01:11:07.578Z,22.78
2018-08-07T01:12:07.565Z,22.84
2018-08-07T01:13:07.556Z,22.81
2018-08-07T01:14:07.546Z,22.77
2018-08-07T01:15:07.529Z,22.71
2018-08-07T01:16:07.522Z,22.76
2018-08-07T01:17:07.509Z,22.68
2018-08-07T01:18:07.496Z,22.65
2018-08-07T01:19:07.495Z,22.80
2018-08-07T01:20:07.474Z,22.73
2018-08-07T01:21:07.458Z,22.73
2018-08-07T01:22:07.454Z,22.71
2018-08-07T01:23:07.443Z,22.78
2018-08-07T01:24:07.499Z,22.77
2018-08-07T01:25:07.414Z,22.81
2018-08-07T01:26:07.401Z,22.83
2018-08-07T01:27:07.474Z,22.73
2018-08-07T01:28:07.380Z,22.71
2018-08-07T01:29:07.366Z,22.71
2018-08-07T01:30:07.354Z,22.62
2018-08-07T01:31:07.343Z,22.53
2018-08-07T01:32:07.334Z,22.52
2018-08-07T01:33:07.326Z,22.53
2018-08-07T01:34:07.312Z,22.49
2018-08-07T01:35:07.296Z,22.53
2018-08-07T01:36:07.286Z,22.41
2018-08-07T01:37:07.270Z,22.41
2018-08-07T01:38:07.264Z,22.44
2018-08-07T01:39:07.248Z,22.46
2018-08-07T01:40:07.237Z,22.41
2018-08-07T01:41:07.229Z,22.37
2018-08-07T01:42:07.221Z,22.40
2018-08-07T01:43:07.205Z,22.34
2018-08-07T01:44:07.193Z,22.36
2018-08-07T01:45:07.177Z,22.41
2018-08-07T01:46:07.173Z,22.36
2018-08-07T01:47:07.151Z,22.36
2018-08-07T01:48:07.142Z,22.33
2018-08-07T01:49:07.132Z,22.28
2018-08-07T01:50:07.117Z,22.37
2018-08-07T01:51:07.206Z,22.41
2018-08-07T01:52:07.106Z,22.38
2018-08-07T01:53:07.081Z,22.33
2018-08-07T01:54:07.069Z,22.36
2018-08-07T01:55:07.058Z,22.37
2018-08-07T01:56:07.050Z,22.23
2018-08-07T01:57:07.034Z,22.28
2018-08-07T01:58:07.023Z,22.25
2018-08-07T01:59:07.010Z,22.15
2018-08-07T02:00:06.999Z,22.18
2018-08-07T02:01:06.985Z,22.22
2018-08-07T02:02:06.975Z,22.16
2018-08-07T02:03:06.962Z,22.04
2018-08-07T02:04:06.949Z,21.99
2018-08-07T02:05:06.939Z,21.97
2018-08-07T02:06:06.931Z,21.89
2018-08-07T02:07:06.912Z,22.01
2018-08-07T02:08:06.900Z,22.01
2018-08-07T02:09:06.890Z,22.04
2018-08-07T02:10:06.880Z,21.97
2018-08-07T02:11:06.864Z,21.96
2018-08-07T02:12:06.854Z,21.88
2018-08-07T02:13:06.839Z,21.77
2018-08-07T02:14:06.830Z,21.78
2018-08-07T02:15:06.824Z,21.77
2018-08-07T02:16:06.807Z,21.84
2018-08-07T02:17:06.798Z,21.78
2018-08-07T02:18:06.785Z,21.84
2018-08-07T02:19:06.769Z,21.74
2018-08-07T02:20:06.757Z,21.77
2018-08-07T02:21:06.743Z,21.74
2018-08-07T02:22:06.730Z,21.81
2018-08-07T02:23:06.725Z,21.80
2018-08-07T02:24:06.715Z,21.75
2018-08-07T02:25:06.697Z,21.81
2018-08-07T02:26:06.681Z,21.81
2018-08-07T02:27:06.670Z,21.84
2018-08-07T02:28:06.657Z,21.77
2018-08-07T02:29:06.648Z,21.66
2018-08-07T02:30:06.635Z,21.72
2018-08-07T02:31:06.673Z,21.69
2018-08-07T02:32:06.610Z,21.81
2018-08-07T02:33:06.604Z,21.77
2018-08-07T02:34:06.584Z,21.89
2018-08-07T02:35:06.576Z,21.80
2018-08-07T02:36:06.562Z,21.78
2018-08-07T02:37:06.548Z,21.80
2018-08-07T02:38:06.535Z,21.78
2018-08-07T02:39:06.521Z,21.74
2018-08-07T02:40:06.513Z,21.77
2018-08-07T02:41:06.500Z,21.63
2018-08-07T02:42:06.487Z,21.62
2018-08-07T02:43:06.472Z,21.62
2018-08-07T02:44:06.472Z,21.70
2018-08-07T02:45:06.450Z,21.65
2018-08-07T02:46:06.441Z,21.75
2018-08-07T02:47:06.525Z,21.74
2018-08-07T02:48:06.430Z,21.75
2018-08-07T02:49:06.401Z,21.77
2018-08-07T02:50:06.391Z,21.78
2018-08-07T02:51:06.376Z,21.68
2018-08-07T02:52:06.362Z,21.66
2018-08-07T02:53:06.354Z,21.63
2018-08-07T02:54:06.337Z,21.66
2018-08-07T02:55:06.326Z,21.60
2018-08-07T02:56:06.313Z,21.58
2018-08-07T02:57:06.301Z,21.60
2018-08-07T02:58:06.290Z,21.62
2018-08-07T02:59:06.277Z,21.58
2018-08-07T03:00:06.268Z,21.60
2018-08-07T03:01:06.261Z,21.58
2018-08-07T03:02:06.241Z,21.60
2018-08-07T03:03:06.229Z,21.65
2018-08-07T03:04:06.217Z,21.66
2018-08-07T03:05:06.203Z,21.65
2018-08-07T03:06:06.274Z,21.66
2018-08-07T03:07:06.181Z,21.70
2018-08-07T03:08:06.168Z,21.59
2018-08-07T03:09:06.156Z,21.59
2018-08-07T03:10:06.143Z,21.59
2018-08-07T03:11:06.141Z,21.60
2018-08-07T03:12:06.117Z,21.58
2018-08-07T03:13:06.108Z,21.54
2018-08-07T03:14:06.100Z,21.59
2018-08-07T03:15:06.081Z,21.56
2018-08-07T03:16:06.069Z,21.50
2018-08-07T03:17:06.058Z,21.54
2018-08-07T03:18:06.044Z,21.62
2018-08-07T03:19:06.041Z,21.60
2018-08-07T03:20:06.022Z,21.51
2018-08-07T03:21:06.009Z,21.44
2018-08-07T03:22:06.003Z,21.47
2018-08-07T03:23:05.980Z,21.56
2018-08-07T03:24:05.970Z,21.51
2018-08-07T03:25:05.960Z,21.54
2018-08-07T03:26:05.944Z,21.40
2018-08-07T03:27:05.932Z,21.47
2018-08-07T03:28:05.919Z,21.48
2018-08-07T03:29:05.909Z,21.50
2018-08-07T03:30:05.894Z,21.54
2018-08-07T03:31:05.880Z,21.56
2018-08-07T03:32:05.868Z,21.53
2018-08-07T03:33:05.857Z,21.45
2018-08-07T03:34:05.847Z,21.47
2018-08-07T03:35:05.834Z,21.43
2018-08-07T03:36:05.828Z,21.35
2018-08-07T03:37:05.807Z,21.28
2018-08-07T03:38:05.795Z,21.07
2018-08-07T03:39:05.781Z,21.17
2018-08-07T03:40:05.769Z,21.25
2018-08-07T03:41:05.758Z,21.22
2018-08-07T03:42:05.747Z,21.20
2018-08-07T03:43:05.733Z,21.14
2018-08-07T03:44:05.732Z,21.07
2018-08-07T03:45:05.707Z,21.05
2018-08-07T03:46:05.696Z,21.08
2018-08-07T03:47:05.682Z,21.10
2018-08-07T03:48:05.672Z,21.11
2018-08-07T03:49:05.658Z,21.20
2018-08-07T03:50:05.645Z,21.15
2018-08-07T03:51:05.634Z,21.08
2018-08-07T03:52:05.618Z,21.10
2018-08-07T03:53:05.613Z,21.20
2018-08-07T03:54:05.598Z,21.28
2018-08-07T03:55:05.581Z,21.26
2018-08-07T03:56:05.572Z,21.25
2018-08-07T03:57:05.567Z,21.22
2018-08-07T03:58:05.543Z,21.11
2018-08-07T03:59:05.554Z,21.08
2018-08-07T04:00:05.523Z,21.23
2018-08-07T04:01:05.511Z,21.26
2018-08-07T04:02:05.493Z,21.23
2018-08-07T04:03:05.481Z,21.17
2018-08-07T04:04:05.471Z,21.20
2018-08-07T04:05:05.455Z,21.23
2018-08-07T04:06:05.441Z,21.14
2018-08-07T04:07:05.431Z,21.11
2018-08-07T04:08:05.424Z,21.11
2018-08-07T04:09:05.407Z,21.07
2018-08-07T04:10:05.496Z,21.08
2018-08-07T04:11:05.380Z,21.11
2018-08-07T04:12:05.365Z,21.11
2018-08-07T04:13:05.352Z,21.10
2018-08-07T04:14:05.341Z,21.17
2018-08-07T04:15:05.328Z,21.26
2018-08-07T04:16:05.317Z,21.22
2018-08-07T04:17:05.304Z,21.28
2018-08-07T04:18:05.290Z,21.35
2018-08-07T04:19:05.277Z,21.38
2018-08-07T04:20:05.264Z,21.37
2018-08-07T04:21:05.259Z,21.19
2018-08-07T04:22:05.238Z,21.26
2018-08-07T04:23:05.240Z,21.33
2018-08-07T04:24:05.214Z,21.29
2018-08-07T04:25:05.205Z,21.30
2018-08-07T04:26:05.312Z,21.35
2018-08-07T04:27:05.176Z,21.29
2018-08-07T04:28:05.163Z,21.41
2018-08-07T04:29:05.150Z,21.23
2018-08-07T04:30:05.138Z,21.25
2018-08-07T04:31:05.126Z,21.22
2018-08-07T04:32:05.112Z,21.19
2018-08-07T04:33:05.100Z,21.14
2018-08-07T04:34:05.096Z,21.13
2018-08-07T04:35:05.096Z,21.08
2018-08-07T04:36:05.070Z,21.05
2018-08-07T04:37:05.066Z,21.17
2018-08-07T04:38:05.037Z,21.14
2018-08-07T04:39:05.025Z,21.05
2018-08-07T04:40:05.012Z,21.15
2018-08-07T04:41:04.999Z,21.25
2018-08-07T04:42:05.134Z,21.28
2018-08-07T04:43:04.974Z,21.29
2018-08-07T04:44:04.961Z,21.32
2018-08-07T04:45:04.999Z,21.44
2018-08-07T04:46:04.935Z,21.43
2018-08-07T04:47:04.922Z,21.43
2018-08-07T04:48:04.919Z,21.43
2018-08-07T04:49:04.901Z,21.43
2018-08-07T04:50:04.885Z,21.45
2018-08-07T04:51:04.872Z,21.59
2018-08-07T04:52:04.863Z,21.62
2018-08-07T04:53:04.850Z,21.68
2018-08-07T04:54:04.839Z,21.68
2018-08-07T04:55:04.832Z,21.72
2018-08-07T04:56:04.815Z,21.72
2018-08-07T04:57:04.807Z,21.80
2018-08-07T04:58:04.819Z,21.88
2018-08-07T04:59:04.784Z,21.83
2018-08-07T05:00:04.759Z,21.94
2018-08-07T05:01:04.750Z,21.96
2018-08-07T05:02:04.740Z,21.89
2018-08-07T05:03:04.720Z,21.92
2018-08-07T05:04:04.709Z,21.83
2018-08-07T05:05:04.698Z,21.91
2018-08-07T05:06:04.752Z,21.94
2018-08-07T05:07:04.674Z,21.96
2018-08-07T05:08:04.659Z,21.92
2018-08-07T05:09:04.648Z,21.91
2018-08-07T05:10:04.633Z,21.92
2018-08-07T05:11:04.645Z,22.04
2018-08-07T05:12:04.613Z,22.12
2018-08-07T05:13:04.598Z,22.12
2018-08-07T05:14:04.585Z,22.18
2018-08-07T05:15:04.572Z,22.23
2018-08-07T05:16:04.561Z,22.31
2018-08-07T05:17:04.553Z,22.31
2018-08-07T05:18:04.534Z,22.28
2018-08-07T05:19:04.522Z,22.31
2018-08-07T05:20:04.520Z,22.28
2018-08-07T05:21:04.541Z,22.25
2018-08-07T05:22:04.484Z,22.28
2018-08-07T05:23:04.472Z,22.31
2018-08-07T05:24:04.460Z,22.40
2018-08-07T05:25:04.501Z,22.40
2018-08-07T05:26:04.436Z,22.37
2018-08-07T05:27:04.422Z,22.28
2018-08-07T05:28:04.411Z,22.33
2018-08-07T05:29:04.400Z,22.33
2018-08-07T05:30:04.386Z,22.36
2018-08-07T05:31:04.380Z,22.41
2018-08-07T05:32:04.362Z,22.44
2018-08-07T05:33:04.349Z,22.52
2018-08-07T05:34:04.338Z,22.59
2018-08-07T05:35:04.325Z,22.67
2018-08-07T05:36:04.314Z,23.34
2018-08-07T05:37:04.302Z,24.26
2018-08-07T05:38:04.300Z,24.97
2018-08-07T05:39:04.279Z,25.67
2018-08-07T05:40:04.273Z,26.15
2018-08-07T05:41:04.403Z,26.71
2018-08-07T05:42:04.239Z,27.04
2018-08-07T05:43:04.228Z,27.67
2018-08-07T05:44:04.316Z,27.85
2018-08-07T05:45:04.205Z,28.19
2018-08-07T05:46:04.206Z,28.65
2018-08-07T05:47:04.184Z,28.46
2018-08-07T05:48:04.174Z,28.38
2018-08-07T05:49:04.163Z,28.68
2018-08-07T05:50:04.234Z,29.09
2018-08-07T05:51:04.511Z,29.53
2018-08-07T05:52:04.152Z,29.74
2018-08-07T05:53:04.149Z,30.02
2018-08-07T05:54:04.115Z,30.26
2018-08-07T05:55:04.134Z,30.52
2018-08-07T05:56:04.098Z,30.74
2018-08-07T05:57:04.089Z,31.00
2018-08-07T05:58:04.235Z,31.45
2018-08-07T05:59:04.075Z,31.35
2018-08-07T06:00:04.069Z,31.57
2018-08-07T06:01:04.063Z,31.77
2018-08-07T06:02:04.050Z,31.42
2018-08-07T06:03:04.046Z,31.22
2018-08-07T06:04:04.039Z,31.59
2018-08-07T06:05:04.238Z,31.45
2018-08-07T06:06:48.006Z,31.51
2018-08-07T06:09:17.111Z,32.08
2018-08-07T06:10:17.108Z,32.00
2018-08-07T06:11:17.111Z,31.69
2018-08-07T06:12:17.099Z,31.97
2018-08-07T06:13:17.097Z,31.95
2018-08-07T06:14:17.088Z,31.70
2018-08-07T06:15:17.084Z,31.79
2018-08-07T06:16:17.077Z,31.66
2018-08-07T06:17:17.123Z,30.78
2018-08-07T06:18:17.069Z,30.44
2018-08-07T06:19:17.089Z,30.17
2018-08-07T06:20:17.060Z,30.16
2018-08-07T06:21:17.072Z,30.18
2018-08-07T06:22:20.686Z,29.73
2018-08-07T06:23:17.048Z,29.46
2018-08-07T06:24:17.044Z,29.09
2018-08-07T06:25:17.044Z,28.57
2018-08-07T06:26:17.043Z,28.43
2018-08-07T06:27:17.035Z,28.25
2018-08-07T06:28:17.040Z,27.90
2018-08-07T06:29:17.029Z,27.58
2018-08-07T06:30:17.036Z,27.52
2018-08-07T06:31:17.069Z,27.82
2018-08-07T06:32:17.031Z,28.41
2018-08-07T06:33:17.014Z,28.83
2018-08-07T06:34:17.019Z,29.00
2018-08-07T06:35:17.009Z,29.35
2018-08-07T06:36:17.006Z,29.61
2018-08-07T06:37:17.018Z,29.57
2018-08-07T06:38:17.006Z,29.71
2018-08-07T06:39:16.995Z,29.84
2018-08-07T06:40:16.992Z,29.44
2018-08-07T06:41:16.991Z,29.30
2018-08-07T06:42:19.606Z,29.05
2018-08-07T06:43:17.016Z,28.80
2018-08-07T06:44:16.984Z,28.28
2018-08-07T06:45:16.976Z,28.20
2018-08-07T06:46:16.975Z,28.20
2018-08-07T06:47:16.968Z,28.22
2018-08-07T06:48:16.967Z,28.18
2018-08-07T06:49:16.965Z,28.01
2018-08-07T06:50:17.000Z,27.95
2018-08-07T06:51:16.967Z,27.81
2018-08-07T06:52:16.958Z,27.71
2018-08-07T06:53:16.961Z,27.57
2018-08-07T06:54:16.954Z,27.34
2018-08-07T06:55:20.180Z,27.18
2018-08-07T06:56:16.943Z,27.04
2018-08-07T06:57:16.942Z,27.15
2018-08-07T06:58:16.938Z,27.19
2018-08-07T06:59:16.942Z,27.50
2018-08-07T07:00:16.935Z,27.73
2018-08-07T07:01:16.927Z,27.81
2018-08-07T07:02:16.923Z,27.88
2018-08-07T07:03:16.916Z,27.91
2018-08-07T07:04:16.913Z,27.86
2018-08-07T07:05:16.910Z,27.86
2018-08-07T07:06:16.906Z,28.04
2018-08-07T07:07:16.900Z,28.01
2018-08-07T07:08:16.908Z,28.15
2018-08-07T07:09:16.911Z,28.37
2018-08-07T07:10:16.883Z,28.40
2018-08-07T07:11:16.879Z,28.22
2018-08-07T07:12:16.877Z,28.46
2018-08-07T07:13:19.690Z,28.64
2018-08-07T07:14:16.870Z,28.62
2018-08-07T07:15:17.785Z,28.64
2018-08-07T07:16:16.862Z,28.57
2018-08-07T07:17:20.339Z,28.55
2018-08-07T07:19:55.618Z,28.62
2018-08-07T07:20:55.676Z,28.75
2018-08-07T07:21:55.621Z,28.62
2018-08-07T07:22:55.598Z,28.87
2018-08-07T07:23:55.596Z,28.86
2018-08-07T07:24:55.584Z,28.96
2018-08-07T07:26:55.570Z,29.20
2018-08-07T07:27:55.567Z,29.02
2018-08-07T07:28:55.567Z,29.13
2018-08-07T07:29:55.564Z,29.15
2018-08-07T07:30:55.552Z,29.07
2018-08-07T07:31:55.679Z,29.00
2018-08-07T07:32:55.541Z,29.16
2018-08-07T07:33:55.529Z,29.39
2018-08-07T07:34:55.524Z,29.37
2018-08-07T07:35:55.515Z,29.42
2018-08-07T07:36:55.508Z,29.35
2018-08-07T07:37:55.511Z,29.25
2018-08-07T07:38:55.497Z,29.21
2018-08-07T07:39:55.493Z,29.24
2018-08-07T07:40:55.487Z,29.50
2018-08-07T07:42:28.694Z,29.42
2018-08-07T07:42:55.476Z,29.40
2018-08-07T07:43:55.471Z,29.42
2018-08-07T07:44:55.465Z,29.57
2018-08-07T07:45:55.458Z,29.71
2018-08-07T07:46:55.582Z,30.06
2018-08-07T07:47:55.451Z,30.18
2018-08-07T07:48:55.447Z,30.10
2018-08-07T07:49:55.435Z,30.02
2018-08-07T07:50:55.479Z,29.86
2018-08-07T07:51:55.424Z,29.90
2018-08-07T07:52:55.422Z,29.80
2018-08-07T07:53:55.436Z,29.68
2018-08-07T07:54:55.407Z,29.61
2018-08-07T07:55:55.410Z,29.55
2018-08-07T07:56:55.393Z,29.69
2018-08-07T07:57:55.390Z,29.64
2018-08-07T07:58:55.392Z,29.57
2018-08-07T07:59:55.378Z,29.53
2018-08-07T08:00:55.381Z,29.71
2018-08-07T08:01:55.366Z,30.01
2018-08-07T08:02:55.359Z,30.38
2018-08-07T08:03:55.361Z,30.44
2018-08-07T08:04:55.349Z,30.43
2018-08-07T08:05:55.437Z,30.44
2018-08-07T08:06:55.342Z,30.44
2018-08-07T08:07:55.337Z,30.40
2018-08-07T08:08:55.323Z,30.61
2018-08-07T08:09:55.318Z,30.73
2018-08-07T08:10:55.320Z,30.96
2018-08-07T08:11:55.307Z,30.85
2018-08-07T08:12:55.307Z,30.89
2018-08-07T08:13:55.294Z,30.86
2018-08-07T08:14:55.289Z,30.98
2018-08-07T08:15:55.281Z,31.00
2018-08-07T08:16:55.328Z,31.18
2018-08-07T08:17:55.294Z,31.13
2018-08-07T08:18:55.273Z,31.00
2018-08-07T08:19:55.268Z,31.28
2018-08-07T08:20:55.253Z,31.32
2018-08-07T08:21:57.869Z,31.32
2018-08-07T08:22:57.864Z,31.23
2018-08-07T08:23:55.233Z,31.23
2018-08-07T08:24:55.228Z,31.15
2018-08-07T08:26:28.430Z,31.10
2018-08-07T08:30:15.915Z,30.95
2018-08-07T08:31:15.913Z,30.93
2018-08-07T08:32:15.920Z,30.96
2018-08-07T08:33:15.898Z,30.92
2018-08-07T08:34:15.888Z,31.04
2018-08-07T08:35:15.950Z,31.14
2018-08-07T08:36:15.873Z,31.11
2018-08-07T08:37:15.865Z,31.26
2018-08-07T08:38:15.861Z,31.28
2018-08-07T08:39:15.855Z,31.36
2018-08-07T08:40:15.847Z,31.60
2018-08-07T08:41:15.844Z,31.77
2018-08-07T08:42:15.834Z,31.73
2018-08-07T08:43:15.889Z,31.73
2018-08-07T08:44:15.824Z,31.70
2018-08-07T08:45:15.814Z,31.67
2018-08-07T08:46:15.813Z,31.89
2018-08-07T08:47:15.805Z,31.86
2018-08-07T08:48:15.825Z,31.85
2018-08-07T08:49:15.789Z,31.86
2018-08-07T08:50:15.792Z,31.87
2018-08-07T08:51:15.777Z,31.93
2018-08-07T08:53:40.378Z,32.34
2018-08-07T08:54:40.367Z,32.39
2018-08-07T08:55:40.358Z,32.44
2018-08-07T08:56:40.352Z,32.48
2018-08-07T08:57:40.346Z,32.38
2018-08-07T08:58:40.340Z,32.63
2018-08-07T08:59:40.333Z,32.67
2018-08-07T09:00:40.327Z,32.73
2018-08-07T09:01:40.318Z,32.90
2018-08-07T09:02:40.312Z,32.97
2018-08-07T09:03:40.307Z,33.29
2018-08-07T09:04:40.301Z,33.35
2018-08-07T09:05:40.301Z,33.53
2018-08-07T09:06:40.290Z,33.84
2018-08-07T09:07:40.281Z,33.87
2018-08-07T09:08:40.275Z,33.95
2018-08-07T09:09:40.269Z,34.11
2018-08-07T09:10:40.455Z,34.33
2018-08-07T09:11:40.256Z,34.56
2018-08-07T09:12:40.253Z,34.48
2018-08-07T09:13:40.254Z,34.58
2018-08-07T09:14:40.253Z,34.65
2018-08-07T09:15:40.240Z,34.89
2018-08-07T09:16:40.229Z,34.88
2018-08-07T09:17:40.228Z,35.05
2018-08-07T09:18:40.236Z,35.39
2018-08-07T09:19:40.277Z,35.47
2018-08-07T09:20:40.212Z,35.71
2018-08-07T09:21:40.217Z,35.84
2018-08-07T09:22:40.209Z,36.03
2018-08-07T09:23:40.224Z,36.06
2018-08-07T09:24:40.198Z,36.08
2018-08-07T09:25:40.290Z,35.71
2018-08-07T09:26:43.214Z,35.66
2018-08-07T09:27:40.329Z,35.78
2018-08-07T09:28:40.180Z,35.84
2018-08-07T09:29:40.175Z,35.79
2018-08-07T09:30:40.172Z,35.63
2018-08-07T09:31:40.169Z,35.59
2018-08-07T09:32:40.165Z,35.45
2018-08-07T09:33:40.167Z,35.41
2018-08-07T09:34:40.159Z,35.13
2018-08-07T09:36:13.370Z,35.10
2018-08-07T09:36:40.153Z,35.22
2018-08-07T09:37:40.154Z,35.47
2018-08-07T09:38:40.153Z,35.56
2018-08-07T09:39:40.190Z,35.87
2018-08-07T09:40:40.165Z,36.16
2018-08-07T09:41:40.153Z,36.60
2018-08-07T09:42:40.139Z,36.87
2018-08-07T09:43:40.198Z,36.88
2018-08-07T09:44:40.137Z,37.00
2018-08-07T09:45:40.134Z,37.04
2018-08-07T09:46:40.269Z,37.21
2018-08-07T09:47:40.140Z,36.89
2018-08-07T09:48:40.132Z,36.89
2018-08-07T09:49:40.807Z,37.22
2018-08-07T09:50:40.147Z,37.41
2018-08-07T09:51:40.133Z,37.48
2018-08-07T09:52:40.123Z,37.95
2018-08-07T09:53:40.128Z,38.13
2018-08-07T09:54:40.119Z,38.23
2018-08-07T09:55:40.119Z,38.47
2018-08-07T09:56:40.269Z,38.69
2018-08-07T09:57:40.121Z,38.92
2018-08-07T09:58:40.268Z,39.04
2018-08-07T09:59:40.122Z,39.04
2018-08-07T10:00:40.135Z,39.01
2018-08-07T10:01:40.144Z,39.22
2018-08-07T10:02:40.132Z,39.91
2018-08-07T10:03:40.132Z,39.95
2018-08-07T10:04:40.147Z,39.70
2018-08-07T10:05:40.142Z,39.10
2018-08-07T10:06:40.145Z,39.15
2018-08-07T10:07:40.148Z,39.37
2018-08-07T10:08:40.152Z,39.39
2018-08-07T10:09:40.158Z,39.48
2018-08-07T10:10:40.162Z,39.75
2018-08-07T10:11:40.170Z,40.05
2018-08-07T10:12:40.173Z,40.19
2018-08-07T10:13:40.178Z,39.64
2018-08-07T10:14:40.186Z,39.94
2018-08-07T10:15:40.194Z,39.76
2018-08-07T10:16:40.197Z,39.85
2018-08-07T10:17:40.216Z,40.07
2018-08-07T10:18:40.215Z,40.24
2018-08-07T10:19:40.218Z,39.91
2018-08-07T10:20:40.227Z,40.23
2018-08-07T10:21:40.348Z,40.74
2018-08-07T10:22:40.239Z,41.26
2018-08-07T10:23:40.261Z,40.80
2018-08-07T10:24:40.256Z,40.62
2018-08-07T10:25:40.268Z,40.71
2018-08-07T10:26:40.268Z,40.80
2018-08-07T10:27:40.275Z,40.81
2018-08-07T10:28:40.285Z,40.44
2018-08-07T10:29:40.294Z,40.24
2018-08-07T10:30:40.347Z,40.12
2018-08-07T10:31:40.307Z,39.94
2018-08-07T10:32:40.316Z,40.24
2018-08-07T10:33:40.328Z,40.05
2018-08-07T10:34:40.488Z,39.48
2018-08-07T10:35:40.342Z,39.68
2018-08-07T10:36:40.349Z,39.94
2018-08-07T10:37:40.358Z,40.55
2018-08-07T10:38:40.368Z,41.10
2018-08-07T10:39:40.377Z,40.93
2018-08-07T10:40:40.471Z,40.86
2018-08-07T10:41:40.405Z,41.08
2018-08-07T10:42:40.411Z,41.37
2018-08-07T10:43:40.574Z,41.70
2018-08-07T10:44:40.436Z,41.49
2018-08-07T10:45:40.429Z,41.46
2018-08-07T10:46:40.440Z,41.15
2018-08-07T10:47:40.491Z,40.57
2018-08-07T10:48:40.467Z,41.03
2018-08-07T10:49:40.475Z,40.83
2018-08-07T10:50:40.530Z,41.41
2018-08-07T10:51:40.492Z,41.34
2018-08-07T10:52:40.494Z,41.32
2018-08-07T10:53:40.503Z,41.46
2018-08-07T10:54:40.522Z,41.41
2018-08-07T10:55:40.524Z,41.08
2018-08-07T10:56:40.582Z,40.64
2018-08-07T10:57:40.549Z,41.03
2018-08-07T10:58:40.553Z,41.26
2018-08-07T10:59:40.562Z,40.52
2018-08-07T11:00:40.574Z,40.51
2018-08-07T11:01:40.584Z,40.58
2018-08-07T11:02:40.622Z,40.64
2018-08-07T11:03:40.623Z,40.99
2018-08-07T11:04:40.611Z,41.17
2018-08-07T11:05:40.670Z,41.26
2018-08-07T11:06:40.634Z,41.44
2018-08-07T11:07:40.642Z,41.71
2018-08-07T11:08:40.648Z,41.96
2018-08-07T11:09:40.659Z,41.37
2018-08-07T11:10:40.670Z,41.24
2018-08-07T11:11:40.680Z,40.51
2018-08-07T11:12:40.757Z,40.12
2018-08-07T11:13:40.728Z,40.07
2018-08-07T11:14:40.717Z,39.71
2018-08-07T11:15:40.719Z,39.61
2018-08-07T11:16:40.729Z,39.42
2018-08-07T11:17:40.741Z,39.17
2018-08-07T11:18:40.760Z,39.73
2018-08-07T11:19:40.762Z,40.19
2018-08-07T11:20:40.763Z,40.55
2018-08-07T11:21:40.777Z,40.69
2018-08-07T11:22:40.787Z,40.88
2018-08-07T11:23:40.790Z,40.77
2018-08-07T11:24:40.857Z,40.00
2018-08-07T11:25:40.807Z,39.23
2018-08-07T11:26:40.818Z,39.30
2018-08-07T11:27:40.827Z,39.19
2018-08-07T11:28:40.847Z,39.19
2018-08-07T11:29:40.847Z,39.37
2018-08-07T11:30:40.855Z,39.95
2018-08-07T11:31:40.866Z,40.14
2018-08-07T11:32:40.875Z,39.97
2018-08-07T11:33:40.881Z,39.98
2018-08-07T11:34:40.894Z,40.04
2018-08-07T11:35:40.910Z,39.94
2018-08-07T11:36:40.911Z,39.97
2018-08-07T11:37:40.913Z,40.13
2018-08-07T11:38:40.928Z,39.94
2018-08-07T11:39:40.929Z,40.00
2018-08-07T11:40:40.933Z,39.88
2018-08-07T11:41:40.941Z,39.79
2018-08-07T11:42:40.952Z,39.64
2018-08-07T11:43:40.959Z,39.94
2018-08-07T11:44:40.972Z,40.32
2018-08-07T11:45:40.972Z,40.32
2018-08-07T11:46:40.983Z,39.88
2018-08-07T11:47:40.998Z,40.00
2018-08-07T11:48:40.993Z,40.49
2018-08-07T11:49:41.002Z,40.67
2018-08-07T11:50:41.063Z,40.51
2018-08-07T11:51:41.030Z,40.55
2018-08-07T11:52:41.038Z,40.49
2018-08-07T11:53:41.031Z,40.55
2018-08-07T11:54:41.039Z,40.43
2018-08-07T11:55:41.039Z,40.62
2018-08-07T11:56:41.045Z,40.62
2018-08-07T11:57:41.050Z,40.80
2018-08-07T11:58:41.055Z,40.83
2018-08-07T11:59:41.061Z,40.78
2018-08-07T12:00:41.193Z,40.83
2018-08-07T12:01:41.073Z,40.93
2018-08-07T12:02:41.079Z,41.08
2018-08-07T12:03:41.087Z,40.78
2018-08-07T12:04:41.088Z,40.62
2018-08-07T12:05:41.096Z,40.35
2018-08-07T12:06:41.101Z,40.14
2018-08-07T12:07:41.103Z,39.66
2018-08-07T12:08:41.108Z,39.45
2018-08-07T12:09:41.107Z,39.23
2018-08-07T12:10:41.109Z,39.01
2018-08-07T12:11:41.112Z,38.79
2018-08-07T12:12:41.113Z,38.50
2018-08-07T12:13:41.236Z,38.34
2018-08-07T12:14:41.118Z,38.19
2018-08-07T12:15:41.120Z,38.36
2018-08-07T12:16:41.123Z,38.31
2018-08-07T12:17:41.127Z,38.20
2018-08-07T12:18:41.136Z,38.17
2018-08-07T12:19:41.134Z,38.12
2018-08-07T12:20:41.144Z,38.20
2018-08-07T12:21:41.192Z,38.25
2018-08-07T12:22:41.136Z,38.32
2018-08-07T12:23:41.130Z,38.20
2018-08-07T12:24:41.130Z,38.13
2018-08-07T12:25:41.159Z,37.85
2018-08-07T12:26:41.190Z,37.56
2018-08-07T12:27:41.172Z,37.54
2018-08-07T12:28:41.140Z,37.63
2018-08-07T12:29:41.137Z,37.78
2018-08-07T12:30:41.133Z,37.71
2018-08-07T12:31:41.134Z,37.60
2018-08-07T12:32:41.131Z,37.56
2018-08-07T12:33:41.138Z,37.41
2018-08-07T12:34:41.139Z,37.43
2018-08-07T12:35:41.131Z,37.43
2018-08-07T12:36:41.136Z,37.36
2018-08-07T12:37:41.136Z,37.29
2018-08-07T12:38:41.130Z,37.21
2018-08-07T12:39:41.129Z,37.34
2018-08-07T12:40:41.232Z,37.28
2018-08-07T12:41:41.129Z,37.28
2018-08-07T12:42:41.127Z,37.44
2018-08-07T12:43:41.125Z,37.56
2018-08-07T12:44:41.125Z,37.28
2018-08-07T12:45:41.120Z,37.22
2018-08-07T12:46:41.251Z,37.31
2018-08-07T12:47:41.120Z,37.29
2018-08-07T12:48:41.126Z,37.36
2018-08-07T12:49:41.121Z,37.16
2018-08-07T12:50:41.115Z,37.23
2018-08-07T12:51:41.127Z,37.16
2018-08-07T12:52:41.113Z,37.22
2018-08-07T12:53:41.113Z,37.19
2018-08-07T12:54:41.108Z,37.21
2018-08-07T12:55:41.107Z,37.19
2018-08-07T12:56:41.109Z,37.15
2018-08-07T12:57:41.113Z,37.15
2018-08-07T12:58:41.109Z,37.29
2018-08-07T12:59:41.109Z,37.36
2018-08-07T13:00:41.156Z,37.37
2018-08-07T13:01:41.099Z,37.03